createdAt,value
2022-11-15T00:01:10.824Z,52.00
2022-11-15T00:03:58.021Z,52.58
2022-11-15T00:06:45.332Z,51.73
2022-11-15T00:09:32.719Z,51.70
2022-11-15T00:12:19.748Z,52.93
2022-11-15T00:15:08.228Z,52.83
2022-11-15T00:17:55.690Z,50.67
2022-11-15T00:20:43.732Z,50.88
2022-11-15T00:23:30.947Z,50.55
2022-11-15T00:26:19.244Z,49.33
2022-11-15T00:29:06.823Z,48.65
2022-11-15T00:31:54.694Z,48.48
2022-11-15T00:34:41.899Z,49.18
2022-11-15T00:37:29.458Z,48.70
2022-11-15T00:40:17.563Z,48.68
2022-11-15T00:43:04.752Z,48.13
2022-11-15T00:45:51.879Z,48.95
2022-11-15T00:48:39.350Z,48.95
2022-11-15T00:51:26.661Z,47.50
2022-11-15T00:54:13.849Z,46.40
2022-11-15T00:57:01.211Z,48.15
2022-11-15T00:59:48.207Z,48.17
2022-11-15T01:02:35.828Z,46.75
2022-11-15T01:05:23.205Z,48.63
2022-11-15T01:08:13.605Z,47.25
2022-11-15T01:11:11.943Z,47.95
2022-11-15T01:13:59.109Z,46.75
2022-11-15T01:16:46.253Z,46.55
2022-11-15T01:19:33.544Z,46.35
2022-11-15T01:22:20.857Z,45.20
2022-11-15T01:25:08.928Z,43.80
2022-11-15T01:27:56.327Z,42.45
2022-11-15T01:30:43.476Z,43.60
2022-11-15T01:33:31.391Z,43.65
2022-11-15T01:36:23.963Z,43.08
2022-11-15T01:39:11.491Z,43.28
2022-11-15T01:41:58.855Z,41.68
2022-11-15T01:44:51.271Z,42.75
2022-11-15T01:47:41.304Z,42.17
2022-11-15T01:50:31.373Z,42.88
2022-11-15T01:53:19.634Z,41.48
2022-11-15T01:56:09.859Z,41.60
2022-11-15T01:58:59.033Z,41.90
2022-11-15T02:01:46.193Z,40.25
2022-11-15T02:04:40.100Z,42.08
2022-11-15T02:07:27.706Z,41.55
2022-11-15T02:10:23.341Z,40.45
2022-11-15T02:13:10.909Z,41.02
2022-11-15T02:16:10.762Z,41.42
2022-11-15T02:19:21.851Z,40.52
2022-11-15T02:22:18.688Z,38.30
2022-11-15T02:25:14.428Z,39.75
2022-11-15T02:28:30.540Z,39.53
2022-11-15T02:31:43.406Z,39.85
2022-11-15T02:34:55.289Z,38.55
2022-11-15T02:37:58.057Z,38.35
2022-11-15T02:40:50.961Z,37.98
2022-11-15T02:43:59.807Z,37.23
2022-11-15T02:47:10.885Z,36.75
2022-11-15T02:50:00.905Z,37.23
2022-11-15T02:52:49.887Z,35.48
2022-11-15T02:55:40.101Z,36.33
2022-11-15T02:58:46.981Z,35.08
2022-11-15T03:01:40.425Z,33.98
2022-11-15T03:07:37.162Z,33.15
2022-11-15T03:10:27.290Z,33.33
2022-11-15T03:13:20.423Z,33.55
2022-11-15T03:18:59.071Z,32.35
2022-11-15T03:21:47.704Z,32.67
2022-11-15T03:24:36.583Z,32.80
2022-11-15T03:27:27.399Z,31.37
2022-11-15T03:30:15.789Z,32.08
2022-11-15T03:33:04.828Z,31.73
2022-11-15T03:35:52.420Z,30.68
2022-11-15T03:38:41.075Z,29.87
2022-11-15T03:41:31.910Z,29.23
2022-11-15T03:44:34.665Z,29.07
2022-11-15T03:47:25.181Z,27.10
2022-11-15T03:50:15.440Z,27.45
2022-11-15T03:53:02.897Z,28.15
2022-11-15T03:55:49.667Z,28.10
2022-11-15T03:58:36.796Z,27.25
2022-11-15T04:01:24.284Z,27.37
2022-11-15T04:04:11.991Z,28.60
2022-11-15T04:06:59.287Z,27.00
2022-11-15T04:10:04.982Z,27.45
2022-11-15T04:12:51.896Z,27.62
2022-11-15T04:15:39.109Z,28.45
2022-11-15T04:18:26.918Z,28.27
2022-11-15T04:21:32.294Z,28.83
2022-11-15T04:24:19.594Z,28.27
2022-11-15T04:27:06.698Z,27.25
2022-11-15T04:29:53.862Z,26.80
2022-11-15T04:32:41.125Z,27.65
2022-11-15T04:35:28.355Z,27.50
2022-11-15T04:38:15.386Z,28.30
2022-11-15T04:41:02.972Z,28.95
2022-11-15T04:43:50.214Z,29.07
2022-11-15T04:46:37.545Z,29.50
2022-11-15T04:49:25.258Z,29.72
2022-11-15T04:52:12.421Z,29.25
2022-11-15T04:55:03.655Z,29.35
2022-11-15T04:57:48.747Z,28.98
2022-11-15T05:00:36.973Z,29.92
2022-11-15T05:03:42.028Z,30.25
2022-11-15T05:06:29.612Z,30.75
2022-11-15T05:09:17.154Z,30.00
2022-11-15T05:12:04.361Z,30.35
2022-11-15T05:14:51.857Z,31.25
2022-11-15T05:17:39.407Z,30.05
2022-11-15T05:20:26.704Z,29.10
2022-11-15T05:23:14.044Z,28.85
2022-11-15T05:26:08.017Z,28.10
2022-11-15T05:28:59.822Z,26.68
2022-11-15T05:31:47.038Z,27.35
2022-11-15T05:34:34.895Z,26.75
2022-11-15T05:37:22.269Z,25.15
2022-11-15T05:40:10.461Z,24.15
2022-11-15T05:42:57.993Z,24.40
2022-11-15T05:45:45.555Z,25.27
2022-11-15T05:48:33.792Z,25.60
2022-11-15T05:51:22.456Z,24.92
2022-11-15T05:54:10.489Z,24.95
2022-11-15T05:56:57.690Z,24.52
2022-11-15T05:59:45.454Z,24.57
2022-11-15T06:02:32.419Z,24.95
2022-11-15T06:05:20.003Z,24.75
2022-11-15T06:08:07.154Z,24.10
2022-11-15T06:10:54.544Z,24.12
2022-11-15T06:13:41.648Z,23.32
2022-11-15T06:16:29.315Z,23.67
2022-11-15T06:19:16.572Z,23.05
2022-11-15T06:22:03.923Z,22.65
2022-11-15T06:24:51.504Z,22.93
2022-11-15T06:27:38.665Z,21.68
2022-11-15T06:30:26.784Z,20.82
2022-11-15T06:33:14.332Z,20.23
2022-11-15T06:36:17.724Z,19.67
2022-11-15T06:39:06.056Z,19.42
2022-11-15T06:41:53.318Z,19.85
2022-11-15T06:44:40.545Z,19.40
2022-11-15T06:47:27.789Z,20.00
2022-11-15T06:50:15.153Z,19.62
2022-11-15T06:53:06.338Z,20.65
2022-11-15T06:55:55.570Z,19.80
2022-11-15T06:58:42.629Z,20.05
2022-11-15T07:01:29.912Z,20.40
2022-11-15T07:04:16.757Z,20.35
2022-11-15T07:07:04.350Z,20.65
2022-11-15T07:09:51.972Z,20.48
2022-11-15T07:12:39.362Z,19.17
2022-11-15T07:15:27.989Z,19.48
2022-11-15T07:18:15.319Z,20.00
2022-11-15T07:21:07.584Z,19.65
2022-11-15T07:23:54.853Z,20.17
2022-11-15T07:26:42.098Z,19.25
2022-11-15T07:29:29.595Z,19.02
2022-11-15T07:32:17.127Z,18.35
2022-11-15T07:35:04.766Z,17.48
2022-11-15T07:37:57.405Z,17.50
2022-11-15T07:40:44.593Z,16.83
2022-11-15T07:43:34.025Z,16.62
2022-11-15T07:46:21.543Z,16.60
2022-11-15T07:49:08.729Z,15.32
2022-11-15T07:51:55.996Z,14.25
2022-11-15T07:54:43.148Z,16.00
2022-11-15T07:57:31.268Z,14.87
2022-11-15T08:00:19.325Z,14.47
2022-11-15T08:03:12.742Z,13.75
2022-11-15T08:08:46.375Z,12.82
2022-11-15T08:11:33.342Z,12.73
2022-11-15T08:14:22.332Z,12.40
2022-11-15T08:17:10.477Z,13.20
2022-11-15T08:19:57.928Z,11.35
2022-11-15T08:22:45.271Z,12.28
2022-11-15T08:25:33.685Z,11.85
2022-11-15T08:28:21.980Z,11.75
2022-11-15T08:31:11.052Z,11.80
2022-11-15T08:33:58.124Z,11.88
2022-11-15T08:36:46.264Z,11.78
2022-11-15T08:39:33.493Z,12.15
2022-11-15T08:42:21.107Z,11.38
2022-11-15T08:45:09.453Z,11.28
2022-11-15T08:47:56.883Z,11.70
2022-11-15T08:50:44.907Z,11.05
2022-11-15T08:53:32.232Z,10.18
2022-11-15T08:56:19.677Z,9.98
2022-11-15T08:59:06.724Z,9.80
2022-11-15T09:01:53.902Z,9.63
2022-11-15T09:04:43.386Z,9.10
2022-11-15T09:07:31.576Z,8.90
2022-11-15T09:10:19.256Z,8.78
2022-11-15T09:13:06.611Z,8.80
2022-11-15T09:15:54.252Z,8.05
2022-11-15T09:18:41.276Z,7.70
2022-11-15T09:21:28.709Z,7.28
2022-11-15T09:24:16.101Z,6.62
2022-11-15T09:27:03.381Z,5.70
2022-11-15T09:29:50.412Z,5.40
2022-11-15T09:32:39.352Z,5.45
2022-11-15T09:35:26.806Z,4.90
2022-11-15T09:38:13.910Z,4.50
2022-11-15T09:41:16.671Z,4.72
2022-11-15T09:44:35.853Z,4.53
2022-11-15T09:47:38.273Z,4.53
2022-11-15T09:50:14.438Z,4.40
2022-11-15T09:52:46.049Z,4.53
2022-11-15T09:55:17.950Z,4.35
2022-11-15T09:57:56.187Z,4.05
2022-11-15T10:00:45.934Z,3.80
2022-11-15T10:03:21.222Z,4.08
2022-11-15T10:05:52.694Z,3.52
2022-11-15T10:08:39.995Z,4.00
2022-11-15T10:11:37.163Z,4.28
2022-11-15T10:13:48.909Z,3.92
2022-11-15T10:16:39.786Z,3.55
2022-11-15T10:19:27.521Z,3.47
2022-11-15T10:22:19.568Z,3.37
2022-11-15T10:24:49.395Z,3.27
2022-11-15T10:27:20.517Z,2.77
2022-11-15T10:29:51.641Z,2.83
2022-11-15T10:32:22.553Z,2.80
2022-11-15T10:34:52.308Z,2.65
2022-11-15T10:37:32.627Z,2.77
2022-11-15T10:40:09.404Z,2.65
2022-11-15T10:42:39.770Z,2.50
2022-11-15T10:45:30.095Z,2.27
2022-11-15T10:48:17.686Z,2.50
2022-11-15T10:50:48.215Z,2.20
2022-11-15T10:53:23.447Z,2.08
2022-11-15T10:55:54.992Z,2.10
2022-11-15T10:58:33.867Z,2.05
2022-11-15T11:01:21.375Z,1.90
2022-11-15T11:04:03.147Z,2.17
2022-11-15T11:06:33.581Z,2.00
2022-11-15T11:09:06.235Z,2.25
2022-11-15T11:14:27.828Z,2.08
2022-11-15T11:17:00.193Z,1.77
2022-11-15T11:19:41.598Z,2.00
2022-11-15T11:22:30.451Z,2.20
2022-11-15T11:25:30.632Z,1.82
2022-11-15T11:28:17.805Z,1.55
2022-11-15T11:30:52.946Z,1.80
2022-11-15T11:33:24.157Z,1.80
2022-11-15T11:35:56.728Z,2.08
2022-11-15T11:41:14.553Z,1.67
2022-11-15T11:44:02.081Z,1.70
2022-11-15T11:46:47.079Z,1.77
2022-11-15T11:49:24.983Z,1.72
2022-11-15T11:52:00.094Z,1.70
2022-11-15T11:54:36.941Z,2.00
2022-11-15T11:57:09.371Z,1.77
2022-11-15T11:59:47.755Z,1.65
2022-11-15T12:02:35.786Z,2.02
2022-11-15T12:05:17.018Z,1.70
2022-11-15T12:07:47.679Z,1.80
2022-11-15T12:10:26.943Z,1.60
2022-11-15T12:13:05.174Z,1.87
2022-11-15T12:15:40.356Z,1.77
2022-11-15T12:18:12.853Z,1.67
2022-11-15T12:20:44.672Z,1.80
2022-11-15T12:23:30.030Z,1.40
2022-11-15T12:26:07.616Z,1.62
2022-11-15T12:29:07.413Z,1.67
2022-11-15T12:31:47.004Z,1.57
2022-11-15T12:34:25.295Z,1.65
2022-11-15T12:36:54.660Z,1.82
2022-11-15T12:39:27.279Z,1.50
2022-11-15T12:44:41.330Z,1.45
2022-11-15T12:47:24.710Z,1.50
2022-11-15T12:49:54.468Z,1.70
2022-11-15T12:52:25.169Z,1.70
2022-11-15T12:54:57.476Z,1.42
2022-11-15T12:57:35.631Z,1.35
2022-11-15T13:00:19.484Z,1.40
2022-11-15T13:02:49.402Z,1.40
2022-11-15T13:05:23.502Z,1.60
2022-11-15T13:07:58.276Z,1.32
2022-11-15T13:10:33.424Z,1.45
2022-11-15T13:13:05.364Z,1.30
2022-11-15T13:15:43.142Z,1.20
2022-11-15T13:18:33.106Z,1.30
2022-11-15T13:21:05.850Z,1.80
2022-11-15T13:23:35.058Z,1.40
2022-11-15T13:26:16.807Z,1.55
2022-11-15T13:28:49.787Z,1.65
2022-11-15T13:31:30.628Z,1.40
2022-11-15T13:34:02.979Z,1.55
2022-11-15T13:36:35.706Z,1.50
2022-11-15T13:39:08.042Z,1.42
2022-11-15T13:41:40.490Z,1.50
2022-11-15T13:44:13.208Z,1.82
2022-11-15T13:49:15.462Z,1.60
2022-11-15T13:51:55.985Z,1.72
2022-11-15T13:54:34.222Z,1.60
2022-11-15T13:57:05.834Z,1.62
2022-11-15T13:59:41.025Z,1.62
2022-11-15T14:02:19.073Z,1.92
2022-11-15T14:04:54.639Z,1.75
2022-11-15T14:07:26.472Z,1.75
2022-11-15T14:09:56.197Z,1.90
2022-11-15T14:12:36.053Z,1.80
2022-11-15T14:15:25.261Z,1.52
2022-11-15T14:17:54.664Z,1.70
2022-11-15T14:20:33.018Z,1.85
2022-11-15T14:23:05.140Z,1.45
2022-11-15T14:25:38.006Z,1.90
2022-11-15T14:28:25.548Z,2.20
2022-11-15T14:30:57.417Z,1.50
2022-11-15T14:33:35.388Z,1.75
2022-11-15T14:36:19.961Z,1.40
2022-11-15T14:38:49.876Z,1.62
2022-11-15T14:41:27.879Z,1.80
2022-11-15T14:43:58.647Z,1.50
2022-11-15T14:46:28.045Z,1.67
2022-11-15T14:48:59.164Z,1.60
2022-11-15T14:51:28.600Z,1.72
2022-11-15T14:53:58.021Z,1.30
2022-11-15T14:56:27.625Z,1.60
2022-11-15T14:58:57.130Z,1.90
2022-11-15T15:01:27.837Z,1.92
2022-11-15T15:03:58.213Z,1.95
2022-11-15T15:06:28.472Z,1.67
2022-11-15T15:08:58.069Z,1.95
2022-11-15T15:11:32.585Z,1.90
2022-11-15T15:14:02.296Z,1.95
2022-11-15T15:16:31.572Z,1.60
2022-11-15T15:19:01.223Z,2.05
2022-11-15T15:21:36.853Z,1.70
2022-11-15T15:26:33.868Z,1.55
2022-11-15T15:29:03.108Z,1.60
2022-11-15T15:31:33.826Z,1.60
2022-11-15T15:34:03.435Z,1.80
2022-11-15T15:36:32.768Z,1.90
2022-11-15T15:39:02.041Z,2.17
2022-11-15T15:41:31.241Z,2.10
2022-11-15T15:44:00.513Z,2.22
2022-11-15T15:46:29.701Z,2.10
2022-11-15T15:48:58.929Z,2.22
2022-11-15T15:51:28.139Z,2.62
2022-11-15T15:53:59.077Z,2.45
2022-11-15T15:56:29.235Z,2.25
2022-11-15T15:58:58.579Z,2.40
2022-11-15T16:01:28.079Z,2.75
2022-11-15T16:03:57.371Z,2.50
2022-11-15T16:06:40.264Z,2.60
2022-11-15T16:09:16.002Z,2.35
2022-11-15T16:11:43.016Z,2.67
2022-11-15T16:14:12.512Z,3.00
2022-11-15T16:16:41.868Z,2.70
2022-11-15T16:19:12.214Z,2.42
2022-11-15T16:21:41.491Z,3.00
2022-11-15T16:24:10.838Z,3.08
2022-11-15T16:26:40.529Z,3.20
2022-11-15T16:29:11.761Z,3.75
2022-11-15T16:31:41.034Z,4.12
2022-11-15T16:34:10.423Z,3.52
2022-11-15T16:36:39.757Z,4.10
2022-11-15T16:39:13.982Z,3.85
2022-11-15T16:41:45.421Z,4.30
2022-11-15T16:44:15.363Z,4.15
2022-11-15T16:46:46.490Z,4.10
2022-11-15T16:49:16.205Z,4.10
2022-11-15T16:51:47.803Z,4.50
2022-11-15T16:54:17.156Z,5.03
2022-11-15T16:56:46.418Z,5.22
2022-11-15T16:59:21.129Z,5.10
2022-11-15T17:01:53.296Z,6.08
2022-11-15T17:04:22.785Z,5.60
2022-11-15T17:06:52.103Z,4.95
2022-11-15T17:09:26.539Z,5.60
2022-11-15T17:11:55.717Z,5.90
2022-11-15T17:14:25.110Z,6.30
2022-11-15T17:16:57.096Z,6.20
2022-11-15T17:19:26.339Z,6.22
2022-11-15T17:21:56.120Z,6.17
2022-11-15T17:24:25.517Z,6.87
2022-11-15T17:26:54.857Z,7.83
2022-11-15T17:29:24.197Z,8.90
2022-11-15T17:31:53.423Z,7.08
2022-11-15T17:34:22.814Z,8.60
2022-11-15T17:36:52.063Z,8.53
2022-11-15T17:39:22.947Z,8.33
2022-11-15T17:41:52.361Z,7.62
2022-11-15T17:44:21.699Z,8.25
2022-11-15T17:46:51.055Z,8.00
2022-11-15T17:49:20.364Z,8.85
2022-11-15T17:51:50.345Z,8.35
2022-11-15T17:54:20.019Z,8.93
2022-11-15T17:56:49.356Z,8.43
2022-11-15T17:59:21.640Z,10.05
2022-11-15T18:01:50.259Z,12.47
2022-11-15T18:04:19.495Z,11.45
2022-11-15T18:06:49.206Z,9.35
2022-11-15T18:09:19.274Z,10.98
2022-11-15T18:11:50.693Z,11.25
2022-11-15T18:14:20.384Z,12.95
2022-11-15T18:16:49.848Z,11.15
2022-11-15T18:19:19.133Z,11.22
2022-11-15T18:21:57.375Z,16.12
2022-11-15T18:24:29.133Z,13.13
2022-11-15T18:26:59.832Z,12.20
2022-11-15T18:29:29.335Z,14.75
2022-11-15T18:31:59.534Z,11.80
2022-11-15T18:34:33.966Z,11.68
2022-11-15T18:37:04.034Z,21.05
2022-11-15T18:39:33.238Z,13.08
2022-11-15T18:42:03.487Z,14.45
2022-11-15T18:44:32.771Z,14.05
2022-11-15T18:47:02.325Z,13.85
2022-11-15T18:49:31.657Z,13.40
2022-11-15T18:52:00.903Z,14.95
2022-11-15T18:54:31.558Z,15.35
2022-11-15T18:57:01.764Z,14.07
2022-11-15T18:59:31.106Z,14.60
2022-11-15T19:02:02.005Z,15.25
2022-11-15T19:04:31.523Z,15.65
2022-11-15T19:07:01.156Z,15.98
2022-11-15T19:09:32.222Z,15.30
2022-11-15T19:12:02.057Z,17.48
2022-11-15T19:14:31.790Z,16.65
2022-11-15T19:17:01.176Z,17.37
2022-11-15T19:19:30.755Z,16.48
2022-11-15T19:22:01.435Z,16.30
2022-11-15T19:24:30.775Z,16.17
2022-11-15T19:27:00.493Z,17.45
2022-11-15T19:29:29.883Z,23.30
2022-11-15T19:31:59.153Z,20.82
2022-11-15T19:34:28.491Z,20.48
2022-11-15T19:36:58.000Z,24.18
2022-11-15T19:39:27.286Z,23.35
2022-11-15T19:41:56.623Z,19.80
2022-11-15T19:44:27.296Z,18.48
2022-11-15T19:46:56.535Z,20.43
2022-11-15T19:49:26.199Z,20.72
2022-11-15T19:51:55.430Z,25.00
2022-11-15T19:54:24.780Z,20.32
2022-11-15T19:56:54.207Z,19.55
2022-11-15T19:59:23.535Z,19.20
2022-11-15T20:01:52.753Z,20.32
2022-11-15T20:04:22.149Z,20.52
2022-11-15T20:06:51.375Z,20.88
2022-11-15T20:09:21.063Z,19.48
2022-11-15T20:11:50.321Z,20.30
2022-11-15T20:14:19.804Z,20.75
2022-11-15T20:16:54.111Z,20.97
2022-11-15T20:19:20.016Z,22.60
2022-11-15T20:21:50.310Z,22.90
2022-11-15T20:24:19.689Z,24.52
2022-11-15T20:26:49.029Z,22.42
2022-11-15T20:29:18.320Z,21.30
2022-11-15T20:31:47.834Z,22.22
2022-11-15T20:34:17.210Z,23.22
2022-11-15T20:36:46.445Z,24.47
2022-11-15T20:39:15.749Z,24.82
2022-11-15T20:41:44.953Z,23.90
2022-11-15T20:44:14.353Z,22.60
2022-11-15T20:46:43.560Z,23.57
2022-11-15T20:49:12.988Z,22.48
2022-11-15T20:51:42.264Z,21.80
2022-11-15T20:54:11.574Z,21.90
2022-11-15T20:56:40.859Z,21.45
2022-11-15T20:59:10.160Z,21.45
2022-11-15T21:01:39.648Z,22.60
2022-11-15T21:04:09.177Z,20.92
2022-11-15T21:06:38.540Z,21.50
2022-11-15T21:09:25.683Z,20.82
2022-11-15T21:12:13.468Z,20.77
2022-11-15T21:14:43.992Z,21.12
2022-11-15T21:17:13.396Z,21.37
2022-11-15T21:19:43.412Z,21.80
2022-11-15T21:22:14.700Z,21.15
2022-11-15T21:24:44.183Z,21.45
2022-11-15T21:27:13.448Z,21.62
2022-11-15T21:29:44.451Z,22.37
2022-11-15T21:32:13.684Z,21.68
2022-11-15T21:34:42.900Z,21.68
2022-11-15T21:37:12.116Z,22.85
2022-11-15T21:39:41.359Z,24.27
2022-11-15T21:42:10.555Z,27.17
2022-11-15T21:44:39.869Z,24.67
2022-11-15T21:47:09.179Z,23.70
2022-11-15T21:49:38.648Z,23.18
2022-11-15T21:52:07.857Z,24.57
2022-11-15T21:54:38.949Z,24.15
2022-11-15T21:57:08.162Z,24.77
2022-11-15T21:59:39.735Z,24.47
2022-11-15T22:02:16.759Z,25.05
2022-11-15T22:04:45.979Z,25.82
2022-11-15T22:07:15.296Z,27.35
2022-11-15T22:09:45.063Z,27.07
2022-11-15T22:12:14.539Z,26.65
2022-11-15T22:14:43.760Z,26.07
2022-11-15T22:17:14.256Z,26.90
2022-11-15T22:19:52.673Z,26.93
2022-11-15T22:22:15.924Z,24.98
2022-11-15T22:24:45.443Z,25.80
2022-11-15T22:27:14.656Z,26.17
2022-11-15T22:29:43.881Z,24.40
2022-11-15T22:32:13.084Z,25.02
2022-11-15T22:34:42.392Z,25.43
2022-11-15T22:37:20.663Z,26.70
2022-11-15T22:39:42.588Z,25.65
2022-11-15T22:42:11.767Z,26.33
2022-11-15T22:44:41.254Z,25.35
2022-11-15T22:47:10.461Z,25.37
2022-11-15T22:49:39.894Z,26.05
2022-11-15T22:52:09.344Z,25.45
2022-11-15T22:54:38.774Z,26.27
2022-11-15T22:57:08.069Z,25.82
2022-11-15T22:59:37.818Z,25.65
2022-11-15T23:02:07.084Z,26.97
2022-11-15T23:04:36.328Z,26.77
2022-11-15T23:07:05.831Z,26.60
2022-11-15T23:09:35.213Z,27.90
2022-11-15T23:12:23.147Z,28.32
2022-11-15T23:14:52.381Z,27.58
2022-11-15T23:17:21.611Z,28.87
2022-11-15T23:19:50.837Z,28.98
2022-11-15T23:22:38.031Z,29.10
2022-11-15T23:25:08.138Z,29.67
2022-11-15T23:27:37.943Z,28.77
2022-11-15T23:30:26.307Z,29.48
2022-11-15T23:33:13.569Z,31.17
2022-11-15T23:35:43.119Z,29.87
2022-11-15T23:38:12.458Z,30.25
2022-11-15T23:40:41.824Z,29.85
2022-11-15T23:43:11.294Z,30.02
2022-11-15T23:45:40.596Z,29.40
2022-11-15T23:48:09.812Z,28.87
2022-11-15T23:50:39.615Z,28.85
2022-11-15T23:53:08.990Z,29.98
2022-11-15T23:55:38.498Z,30.50
2022-11-15T23:58:08.563Z,29.80
